Time;durP1;ratioP1;P1;durP2;ratioP2;P2;SDS_P1;SDS_P2;PMS_P1;PMS_P2;Temp;Humidity;BMP_temperature;BMP_pressure;BME280_temperature;BME280_humidity;BME280_pressure;Samples;Min_cycle;Max_cycle;Signal;HPM_P1;HPM_P2
2023/05/15 00:00:27;;;;;;;1999.90;999.90;;;8.60;99.90;;;;;;5029771;28;20057;-83
2023/05/15 00:02:52;;;;;;;1999.90;999.90;;;8.70;99.90;;;;;;5015809;28;20033;-79
2023/05/15 00:05:18;;;;;;;1999.90;999.90;;;8.70;99.90;;;;;;5031153;28;20396;-81
2023/05/15 00:07:44;;;;;;;1999.90;999.90;;;8.70;99.90;;;;;;5013176;28;20033;-81
2023/05/15 00:10:09;;;;;;;1999.90;999.90;;;8.60;99.90;;;;;;5033390;28;20026;-83
2023/05/15 00:12:35;;;;;;;1999.90;999.90;;;8.50;99.90;;;;;;5031990;28;20029;-83
2023/05/15 00:15:01;;;;;;;1999.90;999.90;;;8.60;99.90;;;;;;5012243;28;20034;-81
2023/05/15 00:17:27;;;;;;;1999.90;999.90;;;8.50;99.90;;;;;;5023349;28;20045;-81
2023/05/15 00:19:57;;;;;;;1999.90;999.90;;;8.60;99.90;;;;;;5028549;28;20029;-84
2023/05/15 00:22:23;;;;;;;;;;;8.50;99.90;;;;;;5027997;28;20064;-80
2023/05/15 00:24:49;;;;;;;1999.90;999.90;;;8.50;99.90;;;;;;5037483;28;19917;-82
2023/05/15 00:27:15;;;;;;;1999.90;999.90;;;8.50;99.90;;;;;;5023511;28;21435;-82
2023/05/15 00:29:40;;;;;;;1999.90;999.90;;;8.50;99.90;;;;;;5030359;28;20034;-82
2023/05/15 00:32:06;;;;;;;1999.90;999.90;;;8.40;99.90;;;;;;5028947;28;20022;-81
2023/05/15 00:34:32;;;;;;;1999.90;999.90;;;8.50;99.90;;;;;;5033565;28;20577;-82
2023/05/15 00:36:59;;;;;;;1999.90;999.90;;;8.40;99.90;;;;;;5021972;28;20102;-82
2023/05/15 00:39:24;;;;;;;1999.90;999.90;;;8.40;99.90;;;;;;5028338;28;20033;-82
2023/05/15 00:41:52;;;;;;;1999.90;999.90;;;8.40;99.90;;;;;;5027085;28;20103;-81
2023/05/15 00:44:21;;;;;;;1999.90;999.90;;;8.40;99.90;;;;;;5032787;28;21359;-83
2023/05/15 00:46:48;;;;;;;1999.90;999.90;;;8.40;99.90;;;;;;5026225;28;20060;-79
2023/05/15 00:49:15;;;;;;;1999.90;999.90;;;8.40;99.90;;;;;;5028118;28;20018;-81
2023/05/15 00:51:41;;;;;;;1999.90;999.90;;;8.30;99.90;;;;;;5028009;28;20029;-83
2023/05/15 00:54:08;;;;;;;1999.90;999.90;;;8.30;99.90;;;;;;5032533;28;20052;-79
2023/05/15 00:56:34;;;;;;;1999.90;999.90;;;8.30;99.90;;;;;;5032637;28;20501;-83
2023/05/15 00:59:02;;;;;;;1999.90;999.90;;;8.30;99.90;;;;;;5036113;28;20069;-82
2023/05/15 01:01:32;;;;;;;1999.90;999.90;;;8.30;99.90;;;;;;5032382;28;20079;-81
2023/05/15 01:03:58;;;;;;;1999.90;999.90;;;8.30;99.90;;;;;;5031346;28;20454;-84
2023/05/15 01:06:24;;;;;;;1999.90;999.90;;;8.30;99.90;;;;;;5023382;28;20445;-81
2023/05/15 01:08:52;;;;;;;1999.90;999.90;;;8.50;99.90;;;;;;5032350;28;20028;-83
2023/05/15 01:11:18;;;;;;;1999.90;999.90;;;8.50;99.90;;;;;;5035593;28;20040;-79
2023/05/15 01:13:45;;;;;;;1999.90;999.90;;;8.40;99.90;;;;;;5030953;28;20112;-81
2023/05/15 01:16:10;;;;;;;1999.90;999.90;;;8.50;99.90;;;;;;5025476;28;20028;-84
2023/05/15 01:18:36;;;;;;;1999.90;999.90;;;8.40;99.90;;;;;;5037685;28;20026;-82
2023/05/15 01:21:05;;;;;;;1999.90;999.90;;;8.40;99.90;;;;;;5029707;28;20022;-83
2023/05/15 01:24:01;;;;;;;1999.90;999.90;;;8.40;99.90;;;;;;5051801;28;20021;-81
2023/05/15 01:27:03;;;;;;;1999.90;999.90;;;8.40;99.90;;;;;;5025747;28;20038;-81
2023/05/15 01:29:47;;;;;;;1999.90;999.90;;;8.40;99.90;;;;;;5032131;28;20045;-80
2023/05/15 01:32:25;;;;;;;1999.90;999.90;;;8.40;99.90;;;;;;5030070;28;20030;-81
2023/05/15 01:34:50;;;;;;;1999.90;999.90;;;8.30;99.90;;;;;;5014244;28;20033;-81
2023/05/15 01:37:20;;;;;;;1999.90;999.90;;;8.30;99.90;;;;;;5034038;28;20079;-84
2023/05/15 01:39:51;;;;;;;1999.90;999.90;;;8.30;99.90;;;;;;5030282;28;20055;-81
2023/05/15 01:42:19;;;;;;;1999.90;999.90;;;8.30;99.90;;;;;;5015641;28;20036;-80
2023/05/15 01:44:54;;;;;;;1999.90;999.90;;;8.30;99.90;;;;;;5046324;28;20060;-80
2023/05/15 01:47:26;;;;;;;1999.90;999.90;;;8.30;99.90;;;;;;5024761;28;20654;-83
2023/05/15 01:49:54;;;;;;;1999.90;999.90;;;8.20;99.90;;;;;;5023432;28;20037;-81
2023/05/15 01:52:27;;;;;;;1999.90;999.90;;;8.30;99.90;;;;;;5044663;28;20039;-84
2023/05/15 01:54:54;;;;;;;1999.90;999.90;;;8.20;99.90;;;;;;5022423;28;20053;-81
2023/05/15 01:57:21;;;;;;;1999.90;999.90;;;8.20;99.90;;;;;;5025054;28;20033;-81
2023/05/15 01:59:47;;;;;;;1999.90;999.90;;;8.10;99.90;;;;;;5030217;28;20060;-82
2023/05/15 02:02:14;;;;;;;1999.90;999.90;;;8.10;99.90;;;;;;5025274;28;20034;-80
2023/05/15 02:04:41;;;;;;;1999.90;999.90;;;8.10;99.90;;;;;;5032422;28;20029;-81
2023/05/15 02:07:07;;;;;;;1999.90;999.90;;;8.00;99.90;;;;;;5027094;28;20038;-82
2023/05/15 02:09:34;;;;;;;1999.90;999.90;;;8.00;99.90;;;;;;5025505;28;20088;-81
2023/05/15 02:12:01;;;;;;;1999.90;999.90;;;8.00;99.90;;;;;;5028716;28;20094;-83
2023/05/15 02:14:30;;;;;;;1999.90;999.90;;;8.00;99.90;;;;;;5029052;28;20673;-84
2023/05/15 02:16:56;;;;;;;1999.90;999.90;;;8.00;99.90;;;;;;5022892;28;20101;-80
2023/05/15 02:19:21;;;;;;;1999.90;999.90;;;8.00;99.90;;;;;;5025777;28;20113;-81
2023/05/15 02:21:48;;;;;;;1999.90;999.90;;;8.00;99.90;;;;;;5023761;28;20020;-81
2023/05/15 02:24:13;;;;;;;1999.90;999.90;;;8.10;99.90;;;;;;5026301;28;20025;-81
2023/05/15 02:27:23;;;;;;;1999.90;999.90;;;8.10;99.90;;;;;;5004892;28;20042;-81
2023/05/15 02:30:13;;;;;;;1999.90;999.90;;;8.10;99.90;;;;;;4986121;28;20034;-81
2023/05/15 02:32:44;;;;;;;1999.90;999.90;;;8.10;99.90;;;;;;4986927;28;20153;-82
2023/05/15 02:35:15;;;;;;;1999.90;999.90;;;8.10;99.90;;;;;;5008563;28;20034;-85
2023/05/15 02:37:46;;;;;;;1999.90;999.90;;;8.10;99.90;;;;;;5021558;28;20036;-82
2023/05/15 02:40:14;;;;;;;1999.90;999.90;;;8.10;99.90;;;;;;5023057;28;20531;-80
2023/05/15 02:42:46;;;;;;;1999.90;999.90;;;8.10;99.90;;;;;;5030892;28;20032;-83
2023/05/15 02:45:12;;;;;;;1999.90;999.90;;;8.10;99.90;;;;;;5029661;28;20030;-83
2023/05/15 02:47:39;;;;;;;1999.90;999.90;;;8.20;99.90;;;;;;5031049;28;20033;-81
2023/05/15 02:50:06;;;;;;;1999.90;999.90;;;8.20;99.90;;;;;;5022704;28;20026;-83
2023/05/15 02:52:34;;;;;;;1999.90;999.90;;;8.20;99.90;;;;;;5025011;28;20407;-82
2023/05/15 02:55:00;;;;;;;1999.90;999.90;;;8.20;99.90;;;;;;5023267;28;20029;-83
2023/05/15 02:57:26;;;;;;;1999.90;999.90;;;8.20;99.90;;;;;;5025346;28;20037;-84
2023/05/15 02:59:58;;;;;;;1999.90;999.90;;;8.10;99.90;;;;;;5025300;28;20403;-82
2023/05/15 03:02:24;;;;;;;1999.90;999.90;;;8.10;99.90;;;;;;5030947;28;20093;-82
2023/05/15 03:04:49;;;;;;;1999.90;999.90;;;8.10;99.90;;;;;;5028068;28;20033;-82
2023/05/15 03:07:15;;;;;;;1999.90;999.90;;;8.10;99.90;;;;;;5032485;28;20092;-85
2023/05/15 03:09:41;;;;;;;1999.90;999.90;;;8.00;99.90;;;;;;5013709;28;20060;-80
2023/05/15 03:12:07;;;;;;;1999.90;999.90;;;8.10;99.90;;;;;;5032422;28;20607;-81
2023/05/15 03:14:33;;;;;;;1999.90;999.90;;;8.00;99.90;;;;;;5027444;28;20167;-81
2023/05/15 03:16:59;;;;;;;1999.90;999.90;;;8.10;99.90;;;;;;5012841;28;20132;-81
2023/05/15 03:19:24;;;;;;;1999.90;999.90;;;8.00;99.90;;;;;;5029288;28;20034;-82
2023/05/15 03:21:50;;;;;;;1999.90;999.90;;;8.00;99.90;;;;;;5031812;28;20124;-81
2023/05/15 03:24:16;;;;;;;1999.90;999.90;;;8.10;99.90;;;;;;5033251;28;20040;-81
2023/05/15 03:26:42;;;;;;;1999.90;999.90;;;8.00;99.90;;;;;;5020870;28;20057;-83
2023/05/15 03:29:08;;;;;;;1999.90;999.90;;;8.00;99.90;;;;;;5032075;28;20045;-83
2023/05/15 03:31:34;;;;;;;1999.90;999.90;;;8.10;99.90;;;;;;5029877;28;20487;-84
2023/05/15 03:33:59;;;;;;;1999.90;999.90;;;8.00;99.90;;;;;;5011531;28;20030;-79
2023/05/15 03:36:25;;;;;;;1999.90;999.90;;;8.10;99.90;;;;;;5031092;28;20025;-84
2023/05/15 03:38:51;;;;;;;1999.90;999.90;;;8.00;99.90;;;;;;5027222;28;20036;-81
2023/05/15 03:41:16;;;;;;;1999.90;999.90;;;8.10;99.90;;;;;;5009722;28;20032;-80
2023/05/15 03:43:42;;;;;;;1999.90;999.90;;;8.10;99.90;;;;;;5033755;28;20492;-81
2023/05/15 03:46:07;;;;;;;1999.90;999.90;;;8.10;99.90;;;;;;5031869;28;20753;-80
2023/05/15 03:48:33;;;;;;;1999.90;999.90;;;8.10;99.90;;;;;;5036222;28;20030;-83
2023/05/15 03:50:59;;;;;;;1999.90;999.90;;;8.10;99.90;;;;;;5033735;28;20585;-81
2023/05/15 03:53:24;;;;;;;1999.90;999.90;;;8.10;99.90;;;;;;5030548;28;20025;-81
2023/05/15 03:55:50;;;;;;;1999.90;999.90;;;8.20;99.90;;;;;;5033014;28;20060;-83
2023/05/15 03:58:16;;;;;;;1999.90;999.90;;;8.30;99.90;;;;;;5022244;28;20033;-83
2023/05/15 04:00:42;;;;;;;1999.90;999.90;;;8.30;99.90;;;;;;5031881;28;20479;-86
2023/05/15 04:03:08;;;;;;;1999.90;999.90;;;8.30;99.90;;;;;;5031927;28;20056;-82
2023/05/15 04:05:33;;;;;;;1999.90;999.90;;;8.30;99.90;;;;;;5036269;28;20052;-80
2023/05/15 04:07:59;;;;;;;1999.90;999.90;;;8.30;99.90;;;;;;5039461;28;20573;-78
2023/05/15 04:10:24;;;;;;;1999.90;999.90;;;8.30;99.90;;;;;;5039001;28;20131;-81
2023/05/15 04:12:50;;;;;;;1999.90;999.90;;;8.30;99.90;;;;;;5018929;28;20036;-78
2023/05/15 04:15:20;;;;;;;1999.90;999.90;;;8.30;99.90;;;;;;5034715;28;20576;-78
2023/05/15 04:17:47;;;;;;;1999.90;999.90;;;8.30;99.90;;;;;;5038350;28;20060;-78
2023/05/15 04:20:14;;;;;;;1999.90;999.90;;;8.30;99.90;;;;;;5027176;28;20045;-79
2023/05/15 04:22:41;;;;;;;1999.90;999.90;;;8.30;99.90;;;;;;5032922;28;20035;-78
2023/05/15 04:25:08;;;;;;;1999.90;999.90;;;8.30;99.90;;;;;;5033207;28;20399;-78
2023/05/15 04:27:35;;;;;;;1999.90;999.90;;;8.30;99.90;;;;;;5032720;28;20045;-81
2023/05/15 04:30:01;;;;;;;1999.90;999.90;;;8.40;99.90;;;;;;5031156;28;20064;-80
2023/05/15 04:32:27;;;;;;;1999.90;999.90;;;8.40;99.90;;;;;;5027765;28;20061;-81
2023/05/15 04:34:53;;;;;;;1999.90;999.90;;;8.40;99.90;;;;;;5030160;28;20026;-80
2023/05/15 04:37:19;;;;;;;1999.90;999.90;;;8.50;99.90;;;;;;5037541;28;20461;-79
2023/05/15 04:39:44;;;;;;;1999.90;999.90;;;8.50;99.90;;;;;;5036705;28;20036;-77
2023/05/15 04:42:10;;;;;;;1999.90;999.90;;;8.50;99.90;;;;;;5036846;28;20033;-79
2023/05/15 04:44:36;;;;;;;1999.90;999.90;;;8.50;99.90;;;;;;5029664;28;20037;-79
2023/05/15 04:47:01;;;;;;;1999.90;999.90;;;8.60;99.90;;;;;;5033815;28;20029;-81
2023/05/15 04:49:27;;;;;;;1999.90;999.90;;;8.70;99.90;;;;;;5033341;28;20036;-79
2023/05/15 04:51:53;;;;;;;1999.90;999.90;;;8.60;99.90;;;;;;5034189;28;20030;-78
2023/05/15 04:54:19;;;;;;;1999.90;999.90;;;8.70;99.90;;;;;;5033868;28;20033;-79
2023/05/15 04:56:45;;;;;;;1999.90;999.90;;;8.70;99.90;;;;;;5034893;28;20053;-80
2023/05/15 04:59:12;;;;;;;1999.90;999.90;;;8.80;99.90;;;;;;5032884;28;20432;-79
2023/05/15 05:01:38;;;;;;;1999.90;999.90;;;8.80;99.70;;;;;;5026180;28;20790;-80
2023/05/15 05:04:04;;;;;;;1999.90;999.90;;;8.90;99.70;;;;;;5025914;28;20038;-80
2023/05/15 05:06:29;;;;;;;1999.90;999.90;;;9.00;99.40;;;;;;5028185;28;20368;-81
2023/05/15 05:08:55;;;;;;;1999.90;999.90;;;9.10;99.40;;;;;;5022990;28;20044;-81
2023/05/15 05:11:21;;;;;;;1999.90;999.90;;;9.30;99.10;;;;;;5028155;28;20391;-80
2023/05/15 05:13:47;;;;;;;1999.90;999.90;;;9.30;98.80;;;;;;5022990;28;20039;-80
2023/05/15 05:16:13;;;;;;;1999.90;999.90;;;9.30;98.20;;;;;;5023523;28;20029;-79
2023/05/15 05:18:38;;;;;;;1999.90;999.90;;;9.30;98.10;;;;;;5032796;28;20163;-86
2023/05/15 05:21:05;;;;;;;1999.90;999.90;;;9.30;98.40;;;;;;5031975;28;20096;-81
2023/05/15 05:23:31;;;;;;;1999.90;999.90;;;9.40;97.90;;;;;;5031797;28;20033;-81
2023/05/15 05:25:58;;;;;;;1999.90;999.90;;;9.50;98.10;;;;;;5025147;28;20057;-79
2023/05/15 05:28:24;;;;;;;1999.90;999.90;;;9.70;98.10;;;;;;5025964;28;20088;-82
2023/05/15 05:30:50;;;;;;;1999.90;999.90;;;9.70;97.80;;;;;;5039303;28;20055;-80
2023/05/15 05:33:17;;;;;;;1999.90;999.90;;;9.60;97.00;;;;;;5024334;28;20030;-83
2023/05/15 05:35:43;;;;;;;1999.90;999.90;;;9.70;97.10;;;;;;5024670;28;20037;-83
2023/05/15 05:38:09;;;;;;;1999.90;999.90;;;9.70;96.90;;;;;;5024568;28;20048;-81
2023/05/15 05:40:34;;;;;;;1999.90;999.90;;;9.60;96.90;;;;;;5038601;28;20030;-79
2023/05/15 05:43:01;;;;;;;1999.90;999.90;;;9.80;97.10;;;;;;5025986;28;20037;-80
2023/05/15 05:45:27;;;;;;;1999.90;999.90;;;9.50;97.00;;;;;;5027848;28;20443;-80
2023/05/15 05:47:55;;;;;;;1999.90;999.90;;;9.40;97.20;;;;;;5031809;28;20509;-81
2023/05/15 05:50:22;;;;;;;1999.90;999.90;;;9.40;97.50;;;;;;5030377;28;20053;-80
2023/05/15 05:52:47;;;;;;;1999.90;999.90;;;9.30;97.50;;;;;;5035905;28;20047;-79
2023/05/15 05:55:15;;;;;;;1999.90;999.90;;;9.40;97.80;;;;;;5034892;28;20034;-81
2023/05/15 05:57:41;;;;;;;1999.90;999.90;;;9.50;97.80;;;;;;5014496;28;20446;-81
2023/05/15 06:00:08;;;;;;;1999.90;999.90;;;9.60;98.10;;;;;;5030996;28;20063;-80
2023/05/15 06:02:35;;;;;;;1999.90;999.90;;;9.80;97.80;;;;;;5014140;28;20665;-83
2023/05/15 06:05:02;;;;;;;1999.90;999.90;;;9.90;97.70;;;;;;5026380;28;20081;-81
2023/05/15 06:07:28;;;;;;;1999.90;999.90;;;9.80;96.80;;;;;;5027964;28;20392;-80
2023/05/15 06:09:55;;;;;;;1999.90;999.90;;;9.90;97.30;;;;;;5034346;28;20036;-80
2023/05/15 06:12:21;;;;;;;1999.90;999.90;;;9.90;96.60;;;;;;5029954;28;20172;-80
2023/05/15 06:14:47;;;;;;;1999.90;999.90;;;10.10;96.80;;;;;;5037085;28;20109;-80
2023/05/15 06:17:12;;;;;;;1999.90;999.90;;;10.10;96.20;;;;;;5018228;28;20053;-84
2023/05/15 06:19:38;;;;;;;1999.90;999.90;;;10.20;95.80;;;;;;5027078;28;20034;-81
2023/05/15 06:22:04;;;;;;;1999.90;999.90;;;10.40;95.70;;;;;;5033196;28;20034;-84
2023/05/15 06:24:30;;;;;;;1999.90;999.90;;;10.40;95.90;;;;;;5026874;28;20670;-82
2023/05/15 06:26:56;;;;;;;1999.90;999.90;;;10.50;95.60;;;;;;5036821;28;20047;-83
2023/05/15 06:29:21;;;;;;;1999.90;999.90;;;10.60;96.10;;;;;;5026729;28;20105;-82
2023/05/15 06:31:47;;;;;;;1999.90;999.90;;;11.00;95.60;;;;;;5033146;28;20033;-81
2023/05/15 06:34:13;;;;;;;1999.90;999.90;;;11.10;95.50;;;;;;5029468;28;20564;-80
2023/05/15 06:36:39;;;;;;;1999.90;999.90;;;11.10;94.30;;;;;;5033503;28;20431;-83
2023/05/15 06:39:05;;;;;;;1999.90;999.90;;;11.40;94.70;;;;;;5029736;28;20418;-84
2023/05/15 06:41:34;;;;;;;1999.90;999.90;;;11.60;94.10;;;;;;5031160;28;20029;-83
2023/05/15 06:44:00;;;;;;;1999.90;999.90;;;11.60;94.10;;;;;;5032251;28;20123;-81
2023/05/15 06:46:26;;;;;;;1999.90;999.90;;;11.70;93.00;;;;;;5034089;28;20163;-79
2023/05/15 06:48:52;;;;;;;1999.90;999.90;;;11.80;93.60;;;;;;5029077;28;20036;-80
2023/05/15 06:51:18;;;;;;;1999.90;999.90;;;11.90;93.60;;;;;;5032132;28;20033;-85
2023/05/15 06:53:43;;;;;;;1999.90;999.90;;;11.60;93.30;;;;;;5026817;28;20369;-81
2023/05/15 06:56:09;;;;;;;1999.90;999.90;;;11.50;94.00;;;;;;5031932;28;20510;-80
2023/05/15 06:58:35;;;;;;;1999.90;999.90;;;11.40;94.30;;;;;;5030957;28;20737;-82
2023/05/15 07:01:02;;;;;;;1999.90;999.90;;;11.40;95.50;;;;;;5035250;28;20037;-82
2023/05/15 07:03:29;;;;;;;1999.90;999.90;;;11.40;95.30;;;;;;5032099;28;20501;-82
2023/05/15 07:05:56;;;;;;;1999.90;999.90;;;11.30;94.90;;;;;;5035287;28;20049;-84
2023/05/15 07:08:21;;;;;;;1999.90;999.90;;;11.50;95.10;;;;;;5030333;28;20032;-82
2023/05/15 07:10:48;;;;;;;1999.90;999.90;;;11.40;94.60;;;;;;5032056;28;20042;-82
2023/05/15 07:13:17;;;;;;;1999.90;999.90;;;11.60;93.90;;;;;;5029352;28;20565;-83
2023/05/15 07:15:43;;;;;;;1999.90;999.90;;;11.60;94.30;;;;;;5032581;28;20026;-81
2023/05/15 07:18:09;;;;;;;1999.90;999.90;;;11.60;93.70;;;;;;5031830;28;20033;-83
2023/05/15 07:20:35;;;;;;;1999.90;999.90;;;12.10;94.90;;;;;;5034830;28;20487;-81
2023/05/15 07:23:00;;;;;;;1999.90;999.90;;;11.80;93.00;;;;;;5012856;28;20039;-81
2023/05/15 07:25:26;;;;;;;1999.90;999.90;;;11.80;93.20;;;;;;5031379;28;20049;-85
2023/05/15 07:27:52;;;;;;;1999.90;999.90;;;11.90;92.70;;;;;;5028762;28;20526;-83
2023/05/15 07:30:18;;;;;;;1999.90;999.90;;;12.00;93.20;;;;;;5034540;28;20030;-83
2023/05/15 07:32:44;;;;;;;1999.90;999.90;;;12.30;93.10;;;;;;5032390;28;20029;-80
2023/05/15 07:35:12;;;;;;;1999.90;999.90;;;12.40;92.60;;;;;;5030687;28;20505;-83
2023/05/15 07:37:39;;;;;;;1999.90;999.90;;;12.60;92.30;;;;;;5033018;28;20514;-82
2023/05/15 07:40:08;;;;;;;1999.90;999.90;;;12.40;91.60;;;;;;5040242;28;20022;-83
2023/05/15 07:42:33;;;;;;;1999.90;999.90;;;12.90;92.40;;;;;;5029124;28;20033;-80
2023/05/15 07:44:59;;;;;;;1999.90;999.90;;;13.30;91.30;;;;;;5034245;28;20037;-83
2023/05/15 07:47:25;;;;;;;1999.90;999.90;;;13.90;90.70;;;;;;5032706;28;20022;-81
2023/05/15 07:49:50;;;;;;;1999.90;999.90;;;14.10;90.50;;;;;;5034675;28;20029;-83
2023/05/15 07:52:16;;;;;;;1999.90;999.90;;;14.70;88.10;;;;;;5033008;28;20040;-81
2023/05/15 07:54:42;;;;;;;1999.90;999.90;;;14.60;85.50;;;;;;5036587;28;20112;-82
2023/05/15 07:57:08;;;;;;;1999.90;999.90;;;14.70;84.80;;;;;;5035686;28;20151;-81
2023/05/15 07:59:36;;;;;;;1999.90;999.90;;;14.50;85.90;;;;;;5033720;28;20509;-83
2023/05/15 08:02:02;;;;;;;1999.90;999.90;;;14.60;83.20;;;;;;5033284;28;20140;-84
2023/05/15 08:04:27;;;;;;;1999.90;999.90;;;14.40;83.90;;;;;;5040493;28;20510;-85
2023/05/15 08:06:53;;;;;;;1999.90;999.90;;;13.90;84.10;;;;;;5036541;28;20037;-84
2023/05/15 08:09:19;;;;;;;1999.90;999.90;;;13.70;86.80;;;;;;5020418;28;20492;-83
2023/05/15 08:11:46;;;;;;;1999.90;999.90;;;13.90;87.40;;;;;;5033061;28;20026;-83
2023/05/15 08:14:11;;;;;;;1999.90;999.90;;;13.80;87.50;;;;;;5034506;28;20021;-86
2023/05/15 08:16:37;;;;;;;1999.90;999.90;;;13.90;83.80;;;;;;5034468;28;20032;-80
2023/05/15 08:19:05;;;;;;;1999.90;999.90;;;14.30;86.40;;;;;;5035531;28;20029;-85
2023/05/15 08:21:32;;;;;;;1999.90;999.90;;;14.30;84.10;;;;;;5033205;28;20079;-86
2023/05/15 08:23:59;;;;;;;1999.90;999.90;;;14.30;83.00;;;;;;5033749;28;20540;-81
2023/05/15 08:26:25;;;;;;;1999.90;999.90;;;14.40;82.80;;;;;;5033681;28;20052;-84
2023/05/15 08:28:51;;;;;;;1999.90;999.90;;;14.50;84.30;;;;;;5034655;28;20513;-83
2023/05/15 08:31:16;;;;;;;1999.90;999.90;;;14.20;84.20;;;;;;5030842;28;20124;-82
2023/05/15 08:33:42;;;;;;;1999.90;999.90;;;14.20;85.60;;;;;;5034310;28;20025;-82
2023/05/15 08:36:08;;;;;;;1999.90;999.90;;;14.30;83.30;;;;;;5034076;28;20033;-81
2023/05/15 08:38:35;;;;;;;1999.90;999.90;;;14.40;83.70;;;;;;5035436;28;20509;-79
2023/05/15 08:41:16;;;;;;;1999.90;999.90;;;14.60;83.40;;;;;;5031856;28;20490;-88
2023/05/15 08:43:43;;;;;;;1999.90;999.90;;;15.00;81.30;;;;;;5032083;28;20071;-83
2023/05/15 08:46:09;;;;;;;1999.90;999.90;;;15.20;81.60;;;;;;5033249;28;20503;-86
2023/05/15 08:48:40;;;;;;;1999.90;999.90;;;14.90;82.20;;;;;;5031194;28;20064;-84
2023/05/15 08:51:09;;;;;;;1999.90;999.90;;;15.00;81.40;;;;;;5031751;28;20021;-82
2023/05/15 08:53:35;;;;;;;1999.90;999.90;;;15.10;81.60;;;;;;5034728;28;20022;-85
2023/05/15 08:56:01;;;;;;;1999.90;999.90;;;14.90;81.10;;;;;;5010939;28;20030;-85
2023/05/15 08:58:27;;;;;;;1999.90;999.90;;;14.40;82.20;;;;;;5034812;28;20037;-82
2023/05/15 09:00:54;;;;;;;1999.90;999.90;;;14.40;81.70;;;;;;5029392;28;20035;-87
2023/05/15 09:03:22;;;;;;;1999.90;999.90;;;14.20;81.90;;;;;;5031419;28;20133;-83
2023/05/15 09:05:51;;;;;;;1999.90;999.90;;;14.60;82.90;;;;;;5032917;28;20037;-85
2023/05/15 09:08:20;;;;;;;1999.90;999.90;;;14.40;81.10;;;;;;5033155;28;20038;-85
2023/05/15 09:10:47;;;;;;;1999.90;999.90;;;14.40;82.70;;;;;;5031945;28;20039;-83
2023/05/15 09:13:14;;;;;;;1999.90;999.90;;;14.00;83.20;;;;;;5030346;28;20041;-84
2023/05/15 09:15:41;;;;;;;1999.90;999.90;;;14.20;85.20;;;;;;5030064;28;20403;-85
2023/05/15 09:18:08;;;;;;;1999.90;999.90;;;14.10;84.10;;;;;;5034206;28;20510;-85
2023/05/15 09:20:37;;;;;;;1999.90;999.90;;;14.20;84.40;;;;;;5036241;28;20116;-85
2023/05/15 09:23:19;;;;;;;1999.90;999.90;;;14.30;84.70;;;;;;5029911;28;20033;-89
2023/05/15 09:25:51;;;;;;;1999.90;999.90;;;14.20;83.10;;;;;;5026619;28;20053;-87
2023/05/15 09:28:26;;;;;;;1999.90;999.90;;;14.40;84.80;;;;;;5027786;28;20104;-83
2023/05/15 09:31:01;;;;;;;1999.90;999.90;;;14.10;83.20;;;;;;5032759;28;20026;-84
2023/05/15 09:33:32;;;;;;;1999.90;999.90;;;14.20;84.10;;;;;;5029968;28;20039;-84
2023/05/15 09:35:57;;;;;;;1999.90;999.90;;;13.90;83.90;;;;;;5033540;28;20075;-84
2023/05/15 09:38:24;;;;;;;1999.90;999.90;;;14.00;84.30;;;;;;5031507;28;20033;-84
2023/05/15 09:40:59;;;;;;;1999.90;999.90;;;13.80;85.70;;;;;;5029172;28;20076;-85
2023/05/15 09:43:27;;;;;;;1999.90;999.90;;;13.70;87.10;;;;;;5031485;28;20059;-86
2023/05/15 09:45:54;;;;;;;1999.90;999.90;;;13.40;88.10;;;;;;5033247;28;20025;-85
2023/05/15 09:48:20;;;;;;;1999.90;999.90;;;13.30;88.90;;;;;;5034640;28;20041;-87
2023/05/15 09:50:47;;;;;;;1999.90;999.90;;;13.10;88.50;;;;;;5031988;28;20026;-87
2023/05/15 09:53:13;;;;;;;1999.90;999.90;;;13.00;89.30;;;;;;5015327;28;20041;-88
2023/05/15 09:55:41;;;;;;;1999.90;999.90;;;13.00;88.10;;;;;;5014865;28;20044;-86
2023/05/15 09:58:12;;;;;;;1999.90;999.90;;;13.20;89.20;;;;;;5028960;28;20056;-87
2023/05/15 10:00:39;;;;;;;1999.90;999.90;;;13.10;90.30;;;;;;5014746;28;20553;-88
2023/05/15 10:03:06;;;;;;;1999.90;999.90;;;12.90;90.50;;;;;;5030364;28;20059;-85
2023/05/15 10:05:32;;;;;;;1999.90;999.90;;;12.60;91.30;;;;;;5034339;28;20537;-87
2023/05/15 10:07:59;;;;;;;1999.90;999.90;;;12.40;92.30;;;;;;5032341;28;20029;-86
2023/05/15 10:10:26;;;;;;;1999.90;999.90;;;12.20;93.50;;;;;;5032515;28;20079;-88
2023/05/15 10:12:58;;;;;;;1999.90;999.90;;;12.10;94.60;;;;;;5035608;28;20120;-84
2023/05/15 10:15:24;;;;;;;1999.90;999.90;;;12.00;95.40;;;;;;5032330;28;20037;-83
2023/05/15 10:17:52;;;;;;;1999.90;999.90;;;11.80;96.40;;;;;;5036165;28;20486;-86
2023/05/15 10:20:19;;;;;;;1999.90;999.90;;;11.50;97.60;;;;;;5044460;28;20030;-83
2023/05/15 10:22:50;;;;;;;1999.90;999.90;;;11.60;98.80;;;;;;5031911;28;20029;-82
2023/05/15 10:25:31;;;;;;;1999.90;999.90;;;11.50;99.60;;;;;;5031331;28;20041;-81
2023/05/15 10:28:02;;;;;;;1999.90;999.90;;;11.40;99.30;;;;;;5032253;28;20814;-81
2023/05/15 10:30:28;;;;;;;1999.90;999.90;;;11.30;99.80;;;;;;5032526;28;20100;-82
2023/05/15 10:32:55;;;;;;;1999.90;999.90;;;11.00;99.70;;;;;;5031725;28;20106;-84
2023/05/15 10:35:21;;;;;;;1999.90;999.90;;;11.00;99.90;;;;;;5033361;28;20076;-82
2023/05/15 10:37:48;;;;;;;1999.90;999.90;;;11.10;99.90;;;;;;5033540;28;20025;-83
2023/05/15 10:40:31;;;;;;;1999.90;999.90;;;11.30;99.90;;;;;;5030015;28;20100;-81
2023/05/15 10:42:59;;;;;;;1999.90;999.90;;;11.20;99.90;;;;;;5029084;28;20037;-87
2023/05/15 10:45:25;;;;;;;1999.90;999.90;;;11.60;99.90;;;;;;5027734;28;20025;-80
2023/05/15 10:47:51;;;;;;;1999.90;999.90;;;11.60;99.90;;;;;;5031544;28;20053;-81
2023/05/15 10:50:19;;;;;;;1999.90;999.90;;;11.90;99.90;;;;;;5030860;28;20104;-86
2023/05/15 10:52:45;;;;;;;1999.90;999.90;;;12.40;99.90;;;;;;5034673;28;20044;-84
2023/05/15 10:55:16;;;;;;;1999.90;999.90;;;12.50;99.90;;;;;;5029572;28;20038;-87
2023/05/15 10:57:44;;;;;;;1999.90;999.90;;;12.90;99.90;;;;;;5033256;28;20029;-84
2023/05/15 11:00:22;;;;;;;1999.90;999.90;;;13.20;99.90;;;;;;5032714;28;21321;-86
2023/05/15 11:02:52;;;;;;;1999.90;999.90;;;13.40;99.90;;;;;;5028972;28;20561;-82
2023/05/15 11:05:18;;;;;;;1999.90;999.90;;;13.50;99.90;;;;;;5030403;28;20025;-83
2023/05/15 11:08:24;;;;;;;1999.90;999.90;;;13.60;99.90;;;;;;5029828;28;20394;-82
2023/05/15 11:10:51;;;;;;;1999.90;999.90;;;14.30;99.90;;;;;;5030610;28;20029;-83
2023/05/15 11:13:17;;;;;;;1999.90;999.90;;;14.30;99.80;;;;;;5033760;28;20021;-83
2023/05/15 11:15:46;;;;;;;1999.90;999.90;;;13.80;96.10;;;;;;5031376;28;20026;-84
2023/05/15 11:18:13;;;;;;;1999.90;999.90;;;13.90;96.60;;;;;;5035460;28;20058;-87
2023/05/15 11:20:48;;;;;;;1999.90;999.90;;;14.00;95.90;;;;;;5032983;28;20533;-83
2023/05/15 11:23:15;;;;;;;1999.90;999.90;;;13.50;97.90;;;;;;5030521;28;20026;-89
2023/05/15 11:25:40;;;;;;;1999.90;999.90;;;13.90;98.10;;;;;;5030314;28;20037;-86
2023/05/15 11:28:21;;;;;;;1999.90;999.90;;;14.50;97.80;;;;;;5029508;28;20489;-81
2023/05/15 11:30:50;;;;;;;1999.90;999.90;;;15.40;97.70;;;;;;5023525;28;20030;-85
2023/05/15 11:33:16;;;;;;;1999.90;999.90;;;15.30;95.70;;;;;;5032458;28;20029;-82
2023/05/15 11:35:45;;;;;;;1999.90;999.90;;;14.80;97.10;;;;;;5024543;28;20502;-82
2023/05/15 11:38:25;;;;;;;1999.90;999.90;;;13.60;95.50;;;;;;5012581;28;20125;-88
2023/05/15 11:41:02;;;;;;;1999.90;999.90;;;13.20;96.20;;;;;;5028533;28;20033;-83
2023/05/15 11:43:30;;;;;;;1999.90;999.90;;;12.50;95.60;;;;;;5044022;28;20058;-87
2023/05/15 11:46:05;;;;;;;1999.90;999.90;;;12.00;96.70;;;;;;5021840;28;20041;-83
2023/05/15 11:48:41;;;;;;;1999.90;999.90;;;12.40;97.60;;;;;;5026732;28;20353;-84
2023/05/15 11:51:26;;;;;;;1999.90;999.90;;;12.00;94.20;;;;;;5032130;28;20083;-84
2023/05/15 11:53:56;;;;;;;1999.90;999.90;;;12.20;95.10;;;;;;5022528;28;20072;-87
2023/05/15 11:56:28;;;;;;;1999.90;999.90;;;12.30;93.80;;;;;;5035276;28;20030;-85
2023/05/15 11:58:58;;;;;;;1999.90;999.90;;;12.40;93.40;;;;;;5030534;28;20120;-84
2023/05/15 12:01:24;;;;;;;1999.90;999.90;;;12.70;93.30;;;;;;5028237;28;20449;-82
2023/05/15 12:03:53;;;;;;;1999.90;999.90;;;13.70;93.50;;;;;;5029741;28;20280;-85
2023/05/15 12:06:18;;;;;;;1999.90;999.90;;;13.80;90.10;;;;;;5036230;28;20486;-86